createdAt,value
2022-10-07T00:03:23.649Z,0.22
2022-10-07T00:08:52.695Z,0.45
2022-10-07T00:14:14.338Z,0.30
2022-10-07T00:19:36.031Z,0.30
2022-10-07T00:24:57.699Z,0.30
2022-10-07T00:30:19.380Z,0.25
2022-10-07T00:35:41.097Z,0.25
2022-10-07T00:41:02.973Z,0.50
2022-10-07T00:46:24.639Z,0.30
2022-10-07T00:51:46.340Z,0.35
2022-10-07T00:57:08.558Z,0.20
2022-10-07T01:02:30.661Z,0.40
2022-10-07T01:07:55.906Z,0.45
2022-10-07T01:13:34.987Z,0.35
2022-10-07T01:19:32.058Z,0.30
2022-10-07T01:25:21.256Z,0.40
2022-10-07T01:30:48.972Z,0.30
2022-10-07T01:36:17.511Z,0.60
2022-10-07T01:41:40.512Z,0.10
2022-10-07T01:47:03.032Z,0.32
2022-10-07T01:52:41.092Z,0.47
2022-10-07T01:58:20.819Z,0.30
2022-10-07T02:04:10.013Z,0.40
2022-10-07T02:09:43.389Z,0.35
2022-10-07T02:15:13.861Z,0.30
2022-10-07T02:20:38.984Z,0.20
2022-10-07T02:26:03.232Z,0.20
2022-10-07T02:31:30.441Z,0.20
2022-10-07T02:37:00.532Z,0.47
2022-10-07T02:42:33.822Z,0.52
2022-10-07T02:48:02.028Z,0.40
2022-10-07T02:53:27.905Z,0.30
2022-10-07T02:58:51.163Z,0.38
2022-10-07T03:04:13.711Z,0.30
2022-10-07T03:09:35.417Z,0.40
2022-10-07T03:14:57.055Z,0.40
2022-10-07T03:20:18.744Z,0.30
2022-10-07T03:25:40.540Z,0.30
2022-10-07T03:31:07.905Z,0.50
2022-10-07T03:36:29.984Z,0.38
2022-10-07T03:41:52.257Z,0.40
2022-10-07T03:47:13.969Z,0.30
2022-10-07T03:52:37.002Z,0.35
2022-10-07T03:57:59.859Z,0.20
2022-10-07T04:03:21.641Z,0.40
2022-10-07T04:08:43.833Z,0.30
2022-10-07T04:14:05.529Z,0.52
2022-10-07T04:19:27.186Z,0.50
2022-10-07T04:25:08.837Z,0.45
2022-10-07T04:30:35.010Z,0.22
2022-10-07T04:35:57.047Z,0.28
2022-10-07T04:41:18.886Z,0.50
2022-10-07T04:46:41.064Z,0.40
2022-10-07T04:52:02.748Z,0.45
2022-10-07T04:57:24.473Z,0.30
2022-10-07T05:02:50.547Z,0.55
2022-10-07T05:08:13.765Z,0.40
2022-10-07T05:13:38.382Z,0.40
2022-10-07T05:19:00.192Z,0.40
2022-10-07T05:24:22.172Z,0.63
2022-10-07T05:29:43.856Z,0.73
2022-10-07T05:35:06.001Z,0.70
2022-10-07T05:40:28.520Z,0.70
2022-10-07T05:46:07.275Z,0.70
2022-10-07T05:51:29.045Z,0.43
2022-10-07T05:56:50.701Z,0.52
2022-10-07T06:02:15.292Z,0.77
2022-10-07T06:07:37.061Z,0.80
2022-10-07T06:13:07.592Z,0.70
2022-10-07T06:18:29.461Z,0.70
2022-10-07T06:23:52.218Z,0.70
2022-10-07T06:29:13.827Z,0.50
2022-10-07T06:34:35.725Z,0.70
2022-10-07T06:39:59.728Z,0.60
2022-10-07T06:45:21.795Z,0.70
2022-10-07T06:50:54.107Z,0.40
2022-10-07T06:56:15.834Z,0.55
2022-10-07T07:01:37.505Z,0.80
2022-10-07T07:06:59.261Z,0.70
2022-10-07T07:12:22.812Z,0.70
2022-10-07T07:17:44.813Z,0.70
2022-10-07T07:23:11.261Z,0.60
2022-10-07T07:28:33.411Z,0.55
2022-10-07T07:34:01.874Z,0.80
2022-10-07T07:39:23.610Z,0.80
2022-10-07T07:44:45.353Z,0.73
2022-10-07T07:50:08.726Z,0.82
2022-10-07T07:55:30.365Z,0.60
2022-10-07T08:01:06.370Z,0.88
2022-10-07T08:06:29.060Z,0.70
2022-10-07T08:11:51.072Z,1.08
2022-10-07T08:17:12.753Z,0.88
2022-10-07T08:22:35.929Z,1.00
2022-10-07T08:27:58.060Z,0.90
2022-10-07T08:33:21.597Z,0.65
2022-10-07T08:38:51.440Z,1.05
2022-10-07T08:44:25.321Z,0.80
2022-10-07T08:50:22.446Z,0.90
2022-10-07T08:55:55.293Z,0.70
2022-10-07T09:01:59.184Z,0.93
2022-10-07T09:07:28.990Z,0.65
2022-10-07T09:13:07.000Z,0.90
2022-10-07T09:18:54.227Z,0.80
2022-10-07T09:24:25.635Z,0.70
2022-10-07T09:29:47.555Z,0.90
2022-10-07T09:35:22.130Z,0.80
2022-10-07T09:41:07.959Z,0.70
2022-10-07T09:46:39.520Z,1.10
2022-10-07T09:52:25.411Z,0.90
2022-10-07T09:58:00.704Z,0.87
2022-10-07T10:03:30.121Z,0.90
2022-10-07T10:08:57.535Z,1.02
2022-10-07T10:14:36.924Z,1.45
2022-10-07T10:20:23.887Z,1.38
2022-10-07T10:26:29.573Z,1.33
2022-10-07T10:32:01.696Z,2.05
2022-10-07T10:37:35.317Z,1.90
2022-10-07T10:43:02.545Z,2.13
2022-10-07T10:48:45.047Z,2.17
2022-10-07T10:54:25.210Z,1.80
2022-10-07T11:00:11.643Z,1.80
2022-10-07T11:05:39.507Z,1.25
2022-10-07T11:11:06.878Z,1.65
2022-10-07T11:16:36.656Z,1.45
2022-10-07T11:22:00.240Z,2.05
2022-10-07T11:27:29.865Z,1.50
2022-10-07T11:33:01.202Z,1.30
2022-10-07T11:38:27.888Z,1.45
2022-10-07T11:43:55.887Z,1.73
2022-10-07T11:49:23.808Z,1.30
2022-10-07T11:54:54.678Z,1.20
2022-10-07T12:00:37.499Z,1.67
2022-10-07T12:06:09.411Z,1.50
2022-10-07T12:11:36.955Z,1.63
2022-10-07T12:16:58.731Z,1.13
2022-10-07T12:22:20.437Z,1.63
2022-10-07T12:27:46.550Z,1.45
2022-10-07T12:33:34.064Z,2.10
2022-10-07T12:38:59.265Z,1.40
2022-10-07T12:44:43.549Z,1.48
2022-10-07T12:50:15.057Z,1.60
2022-10-07T12:55:39.735Z,1.50
2022-10-07T13:01:23.245Z,1.37
2022-10-07T13:06:58.086Z,1.38
2022-10-07T13:12:35.166Z,1.30
2022-10-07T13:18:19.377Z,1.23
2022-10-07T13:23:50.089Z,1.20
2022-10-07T13:29:24.136Z,1.58
2022-10-07T13:34:46.523Z,1.27
2022-10-07T13:40:35.554Z,1.13
2022-10-07T13:45:58.562Z,1.65
2022-10-07T13:51:41.402Z,1.60
2022-10-07T13:57:03.345Z,1.50
2022-10-07T14:02:25.114Z,1.25
2022-10-07T14:07:53.732Z,1.50
2022-10-07T14:13:16.577Z,1.45
2022-10-07T14:18:44.174Z,1.45
2022-10-07T14:24:10.240Z,1.23
2022-10-07T14:29:37.911Z,1.33
2022-10-07T14:35:21.111Z,1.50
2022-10-07T14:40:43.260Z,1.48
2022-10-07T14:46:11.643Z,1.75
2022-10-07T14:51:33.404Z,1.20
2022-10-07T14:56:55.103Z,1.60
2022-10-07T15:02:17.510Z,2.05
2022-10-07T15:07:39.461Z,1.80
2022-10-07T15:13:01.328Z,1.80
2022-10-07T15:18:23.025Z,1.70
2022-10-07T15:23:45.172Z,2.05
2022-10-07T15:29:08.100Z,1.70
2022-10-07T15:34:31.189Z,1.50
2022-10-07T15:39:53.261Z,1.45
2022-10-07T15:45:15.159Z,1.92
2022-10-07T15:50:36.854Z,1.90
2022-10-07T15:55:58.837Z,1.73
2022-10-07T16:01:20.988Z,1.60
2022-10-07T16:06:49.615Z,1.65
2022-10-07T16:12:11.311Z,1.75
2022-10-07T16:17:33.132Z,1.40
2022-10-07T16:22:54.915Z,2.00
2022-10-07T16:28:34.899Z,2.63
2022-10-07T16:33:56.671Z,2.03
2022-10-07T16:39:19.349Z,2.95
2022-10-07T16:44:40.987Z,2.60
2022-10-07T16:50:04.478Z,2.42
2022-10-07T16:55:29.292Z,2.08
2022-10-07T17:00:50.959Z,2.85
2022-10-07T17:06:18.085Z,2.47
2022-10-07T17:11:40.098Z,2.97
2022-10-07T17:17:01.848Z,2.60
2022-10-07T17:22:23.630Z,2.97
2022-10-07T17:27:45.509Z,2.40
2022-10-07T17:33:08.246Z,2.65
2022-10-07T17:38:33.502Z,3.60
2022-10-07T17:43:57.587Z,2.10
2022-10-07T17:49:19.221Z,2.45
2022-10-07T17:54:40.957Z,2.10
2022-10-07T18:00:05.324Z,1.55
2022-10-07T18:05:28.133Z,1.67
2022-10-07T18:10:51.223Z,1.67
2022-10-07T18:16:14.219Z,1.52
2022-10-07T18:21:36.446Z,1.10
2022-10-07T18:26:59.963Z,1.45
2022-10-07T18:32:22.455Z,1.45
2022-10-07T18:37:45.717Z,1.65
2022-10-07T18:43:07.515Z,2.00
2022-10-07T18:48:31.012Z,1.48
2022-10-07T18:53:52.761Z,1.77
2022-10-07T18:59:14.986Z,2.28
2022-10-07T19:04:36.702Z,1.90
2022-10-07T19:09:58.395Z,1.92
2022-10-07T19:15:20.014Z,1.40
2022-10-07T19:20:42.526Z,1.20
2022-10-07T19:26:04.190Z,1.70
2022-10-07T19:31:35.399Z,2.20
2022-10-07T19:36:57.541Z,1.02
2022-10-07T19:42:19.165Z,1.33
2022-10-07T19:47:41.028Z,1.20
2022-10-07T19:53:04.548Z,1.50
2022-10-07T19:58:27.257Z,1.27
2022-10-07T20:03:50.080Z,0.95
2022-10-07T20:09:14.550Z,1.13
2022-10-07T20:14:36.251Z,1.17
2022-10-07T20:19:57.991Z,1.10
2022-10-07T20:25:19.645Z,1.02
2022-10-07T20:30:41.472Z,1.20
2022-10-07T20:36:03.681Z,1.20
2022-10-07T20:41:45.031Z,0.90
2022-10-07T20:47:08.261Z,1.02
2022-10-07T20:52:32.587Z,0.98
2022-10-07T20:57:54.631Z,1.20
2022-10-07T21:03:18.357Z,1.23
2022-10-07T21:08:40.003Z,0.90
2022-10-07T21:14:01.864Z,1.27
2022-10-07T21:19:23.725Z,0.98
2022-10-07T21:24:45.382Z,0.98
2022-10-07T21:30:08.355Z,0.80
2022-10-07T21:35:31.580Z,0.80
2022-10-07T21:40:53.593Z,0.82
2022-10-07T21:46:15.584Z,0.80
2022-10-07T21:51:38.245Z,0.90
2022-10-07T21:56:59.894Z,1.02
2022-10-07T22:02:21.731Z,0.63
2022-10-07T22:08:02.382Z,0.65
2022-10-07T22:13:24.050Z,0.50
2022-10-07T22:18:49.530Z,0.60
2022-10-07T22:24:11.425Z,0.95
2022-10-07T22:29:33.075Z,0.60
2022-10-07T22:35:13.193Z,0.63
2022-10-07T22:40:38.701Z,1.13
2022-10-07T22:51:22.653Z,0.80
2022-10-07T22:56:45.598Z,0.60
2022-10-07T23:02:09.968Z,0.60
2022-10-07T23:07:32.463Z,0.63
2022-10-07T23:12:54.141Z,0.60
2022-10-07T23:18:15.815Z,0.60
2022-10-07T23:23:38.699Z,0.68
2022-10-07T23:29:01.371Z,0.60
2022-10-07T23:34:23.223Z,0.63
2022-10-07T23:39:45.045Z,0.57
2022-10-07T23:45:07.117Z,0.60
2022-10-07T23:50:28.843Z,0.50
2022-10-07T23:55:53.230Z,0.63
